Time;durP1;ratioP1;P1;durP2;ratioP2;P2;SDS_P1;SDS_P2;PMS_P1;PMS_P2;Temp;Humidity;BMP_temperature;BMP_pressure;BME280_temperature;BME280_humidity;BME280_pressure;Samples;Min_cycle;Max_cycle;Signal;HPM_P1;HPM_P2
2022/01/03 00:01:44;;;;;;;7.30;4.60;;;;;;;9.36;86.91;99224.34;87282;1287;80681;-69
2022/01/03 00:03:50;;;;;;;8.10;4.60;;;;;;;9.36;86.69;99220.18;87302;1287;98274;-71
2022/01/03 00:05:56;;;;;;;8.00;4.50;;;;;;;9.34;86.73;99219.06;87143;1287;89879;-69
2022/01/03 00:08:03;;;;;;;6.80;4.60;;;;;;;9.34;86.70;99224.08;87282;1287;94817;-70
2022/01/03 00:10:11;;;;;;;7.50;4.30;;;;;;;9.29;86.57;99222.15;87076;1288;79537;-71
2022/01/03 00:12:20;;;;;;;7.90;4.40;;;;;;;9.22;86.41;99223.73;87162;1288;80560;-71
2022/01/03 00:14:31;;;;;;;8.10;4.60;;;;;;;9.13;86.42;99214.99;87278;1287;100509;-70
2022/01/03 00:16:40;;;;;;;7.10;4.60;;;;;;;9.08;86.44;99212.97;87186;1288;89097;-71
2022/01/03 00:18:51;;;;;;;7.70;4.70;;;;;;;9.07;86.51;99206.63;87256;1287;95614;-71
2022/01/03 00:21:01;;;;;;;8.80;4.40;;;;;;;9.07;86.51;99213.34;87192;1288;81621;-72
2022/01/03 00:23:14;;;;;;;7.40;4.10;;;;;;;9.10;86.61;99212.59;87253;1287;83805;-72
2022/01/03 00:25:21;;;;;;;10.60;4.70;;;;;;;9.13;86.58;99209.45;87175;1288;99546;-69
2022/01/03 00:27:35;;;;;;;6.50;4.10;;;;;;;9.18;86.71;99210.93;87191;1287;89176;-70
2022/01/03 00:29:48;;;;;;;8.80;4.30;;;;;;;9.22;86.73;99204.83;87297;1287;94894;-70
2022/01/03 00:31:57;;;;;;;7.00;4.00;;;;;;;9.25;86.66;99205.88;87246;1287;78871;-69
2022/01/03 00:34:09;;;;;;;5.90;4.50;;;;;;;9.30;86.56;99214.80;87289;1287;81446;-69
2022/01/03 00:36:15;;;;;;;8.80;4.80;;;;;;;9.31;86.42;99213.35;87255;1287;99159;-71
2022/01/03 00:38:22;;;;;;;6.60;4.50;;;;;;;9.31;86.39;99218.15;87301;1287;89188;-69
2022/01/03 00:40:28;;;;;;;6.00;4.30;;;;;;;9.31;86.39;99218.38;87257;1287;95204;-70
2022/01/03 00:42:34;;;;;;;8.50;4.40;;;;;;;9.33;86.25;99215.27;87164;1288;82049;-70
2022/01/03 00:44:42;;;;;;;6.20;4.00;;;;;;;9.35;86.31;99214.25;87291;1287;81932;-69
2022/01/03 00:46:49;;;;;;;6.40;4.20;;;;;;;9.37;86.09;99210.52;87179;1288;99042;-70
2022/01/03 00:48:55;;;;;;;7.00;4.60;;;;;;;9.39;86.16;99216.25;87268;1287;88272;-70
2022/01/03 00:51:03;;;;;;;7.80;4.00;;;;;;;9.41;85.94;99214.61;87288;1287;95597;-71
2022/01/03 00:53:09;;;;;;;8.10;4.00;;;;;;;9.46;85.75;99211.96;87300;1287;79190;-71
2022/01/03 00:55:16;;;;;;;6.00;4.10;;;;;;;9.47;85.74;99209.02;87303;1287;81161;-69
2022/01/03 00:57:43;;;;;;;6.60;3.70;;;;;;;9.48;85.76;99206.52;87284;1287;99238;-70
2022/01/03 01:00:02;;;;;;;6.60;4.00;;;;;;;9.47;85.52;99206.66;87377;1287;89083;-71
2022/01/03 01:02:11;;;;;;;6.60;3.80;;;;;;;9.45;85.39;99205.70;87282;1287;94661;-71
2022/01/03 01:04:18;;;;;;;9.80;4.10;;;;;;;9.42;85.15;99191.70;87135;1287;79762;-69
2022/01/03 01:06:26;;;;;;;6.20;3.80;;;;;;;9.42;85.15;99198.81;87369;1287;81479;-71
2022/01/03 01:08:35;;;;;;;7.50;4.10;;;;;;;9.42;85.11;99200.27;87363;1287;98092;-69
2022/01/03 01:10:42;;;;;;;7.10;3.50;;;;;;;9.44;85.09;99203.25;87342;1287;88191;-69
2022/01/03 01:12:48;;;;;;;5.50;3.70;;;;;;;9.47;85.14;99199.09;87338;1287;93656;-69
2022/01/03 01:14:54;;;;;;;9.30;4.50;;;;;;;9.50;85.07;99199.17;87358;1288;80835;-73
2022/01/03 01:17:04;;;;;;;6.10;3.50;;;;;;;9.54;85.06;99195.30;87373;1287;81412;-71
2022/01/03 01:19:11;;;;;;;4.90;3.60;;;;;;;9.52;84.71;99191.79;87383;1287;98424;-72
2022/01/03 01:21:23;;;;;;;6.80;3.90;;;;;;;9.51;84.85;99186.52;87416;1287;88179;-70
2022/01/03 01:23:29;;;;;;;8.20;3.60;;;;;;;9.48;84.75;99195.27;87359;1287;94881;-71
2022/01/03 01:27:59;;;;;;;5.90;3.80;;;;;;;9.43;84.59;99182.89;87301;1286;81468;-73
2022/01/03 01:30:10;;;;;;;7.20;3.60;;;;;;;9.42;84.48;99176.96;87308;1287;98679;-73
2022/01/03 01:32:18;;;;;;;8.30;3.00;;;;;;;9.40;84.44;99176.56;87293;1287;89324;-72
2022/01/03 01:34:29;;;;;;;5.60;3.70;;;;;;;9.36;84.57;99175.48;87173;1288;96028;-73
2022/01/03 01:36:36;;;;;;;7.80;3.40;;;;;;;9.36;84.29;99178.18;87274;1287;81347;-69
2022/01/03 01:38:50;;;;;;;6.10;3.20;;;;;;;9.35;84.33;99173.29;87195;1288;83577;-71
2022/01/03 01:40:56;;;;;;;;;;;;;;;9.37;84.43;99175.10;87295;1287;98701;-73
2022/01/03 01:43:05;;;;;;;4.10;3.00;;;;;;;9.37;84.44;99175.08;87273;1287;88871;-74
2022/01/03 01:45:12;;;;;;;4.90;3.20;;;;;;;9.36;84.39;99173.52;87144;1288;94308;-71
2022/01/03 01:47:21;;;;;;;5.80;3.50;;;;;;;9.38;84.40;99180.79;87290;1287;79326;-74
2022/01/03 01:49:37;;;;;;;6.10;3.20;;;;;;;9.35;84.29;99183.45;87192;1288;81717;-72
2022/01/03 01:51:50;;;;;;;4.80;3.30;;;;;;;9.34;84.15;99178.44;87267;1287;99786;-69
2022/01/03 01:53:56;;;;;;;5.10;3.10;;;;;;;9.35;84.06;99183.33;87177;1288;87402;-71
2022/01/03 01:56:08;;;;;;;6.40;2.90;;;;;;;9.38;84.12;99180.08;87279;1287;94547;-72
2022/01/03 01:58:28;;;;;;;5.30;3.00;;;;;;;9.38;84.08;99181.53;87246;1287;82426;-71
2022/01/03 02:00:38;;;;;;;6.60;3.20;;;;;;;9.41;84.12;99186.10;87312;1288;81001;-72
2022/01/03 02:03:06;;;;;;;5.40;3.00;;;;;;;9.41;84.10;99184.44;87273;1287;96937;-74
2022/01/03 02:05:27;;;;;;;7.60;3.10;;;;;;;9.42;84.01;99179.30;87191;1288;89023;-72
2022/01/03 02:08:03;;;;;;;5.80;3.00;;;;;;;9.42;84.04;99186.88;87145;1288;94716;-72
2022/01/03 02:10:13;;;;;;;5.20;3.20;;;;;;;9.40;83.90;99177.38;87292;1287;78675;-70
2022/01/03 02:12:25;;;;;;;5.40;3.60;;;;;;;9.38;83.72;99176.48;87323;1287;79969;-70
2022/01/03 02:14:36;;;;;;;5.00;2.90;;;;;;;9.35;83.84;99170.39;87207;1287;99209;-70
2022/01/03 02:16:46;;;;;;;5.40;2.50;;;;;;;9.34;83.91;99173.12;87156;1288;89234;-70
2022/01/03 02:18:52;;;;;;;5.50;3.20;;;;;;;9.32;83.81;99170.48;87171;1288;94256;-68
2022/01/03 02:21:05;;;;;;;4.80;2.70;;;;;;;9.31;83.74;99163.10;87138;1288;81705;-69
2022/01/03 02:23:15;;;;;;;5.30;2.90;;;;;;;9.31;83.76;99163.76;87197;1288;81064;-70
2022/01/03 02:25:26;;;;;;;4.00;2.60;;;;;;;9.28;83.70;99157.36;87276;1287;100190;-71
2022/01/03 02:27:34;;;;;;;6.30;3.40;;;;;;;9.25;83.64;99157.36;87248;1287;88025;-72
2022/01/03 02:29:43;;;;;;;7.40;3.10;;;;;;;9.20;83.63;99153.96;87266;1287;93246;-70
2022/01/03 02:31:51;;;;;;;6.60;2.80;;;;;;;9.16;83.50;99155.27;87261;1287;80529;-70
2022/01/03 02:34:01;;;;;;;6.70;2.90;;;;;;;9.10;83.63;99155.27;87078;1290;82082;-70
2022/01/03 02:36:11;;;;;;;7.10;3.10;;;;;;;9.03;83.51;99154.88;87303;1287;99680;-70
2022/01/03 02:38:20;;;;;;;6.60;3.00;;;;;;;8.94;83.50;99151.58;87139;1288;87929;-71
2022/01/03 02:40:27;;;;;;;8.00;3.30;;;;;;;8.87;83.62;99153.60;87370;1287;94096;-70
2022/01/03 02:42:37;;;;;;;7.50;3.10;;;;;;;8.87;83.71;99153.52;87371;1287;79425;-70
2022/01/03 02:44:46;;;;;;;6.50;3.60;;;;;;;8.86;83.88;99140.15;87395;1287;81569;-71
2022/01/03 02:46:53;;;;;;;5.60;3.10;;;;;;;8.87;83.84;99140.52;87373;1287;98506;-70
2022/01/03 02:49:05;;;;;;;4.60;3.00;;;;;;;8.90;83.95;99140.02;87250;1287;88721;-68
2022/01/03 02:51:13;;;;;;;4.80;2.50;;;;;;;8.88;83.77;99143.71;87290;1287;95712;-70
2022/01/03 02:53:20;;;;;;;4.00;2.40;;;;;;;8.80;83.72;99136.14;87252;1287;80740;-70
2022/01/03 02:55:29;;;;;;;4.60;2.30;;;;;;;8.74;83.53;99137.60;87281;1287;82494;-73
2022/01/03 02:57:40;;;;;;;4.80;2.40;;;;;;;8.66;83.60;99146.91;87144;1288;98791;-72
2022/01/03 02:59:54;;;;;;;4.20;2.40;;;;;;;8.59;83.74;99147.90;87147;1288;88598;-70
2022/01/03 03:02:02;;;;;;;;;;;;;;;8.55;83.75;99138.22;87255;1287;96322;-70
2022/01/03 03:04:07;;;;;;;3.80;2.00;;;;;;;8.49;83.87;99137.05;87268;1287;79800;-71
2022/01/03 03:06:16;;;;;;;4.10;2.50;;;;;;;8.49;83.88;99137.93;87266;1287;80994;-71
2022/01/03 03:08:22;;;;;;;3.80;2.20;;;;;;;8.49;84.01;99131.67;87258;1287;99945;-74
2022/01/03 03:10:30;;;;;;;4.30;2.10;;;;;;;8.47;83.98;99141.98;87301;1287;88944;-73
2022/01/03 03:12:36;;;;;;;5.70;2.40;;;;;;;8.43;83.98;99134.08;87323;1287;94283;-72
2022/01/03 03:14:42;;;;;;;4.80;2.40;;;;;;;8.37;83.89;99133.16;87265;1287;78810;-72
2022/01/03 03:16:48;;;;;;;4.50;2.30;;;;;;;8.31;84.02;99133.61;87245;1287;82512;-73
2022/01/03 03:18:57;;;;;;;4.50;2.40;;;;;;;8.27;83.99;99132.89;87177;1288;100360;-73
2022/01/03 03:21:02;;;;;;;4.90;2.50;;;;;;;8.21;84.08;99124.88;87296;1287;87920;-72
2022/01/03 03:23:12;;;;;;;5.20;2.50;;;;;;;8.18;84.03;99128.84;87255;1287;94080;-73
2022/01/03 03:25:20;;;;;;;4.30;2.50;;;;;;;8.14;84.29;99129.55;87144;1288;82868;-72
2022/01/03 03:27:29;;;;;;;4.40;2.40;;;;;;;8.13;84.25;99132.29;87240;1287;83096;-72
2022/01/03 03:29:34;;;;;;;5.90;3.00;;;;;;;8.10;84.40;99135.37;87180;1288;99560;-71
2022/01/03 03:31:40;;;;;;;8.50;3.00;;;;;;;8.07;84.50;99138.88;87283;1287;89516;-72
2022/01/03 03:33:48;;;;;;;4.50;2.80;;;;;;;8.05;84.43;99137.55;87185;1288;96099;-73
2022/01/03 03:35:54;;;;;;;4.40;3.00;;;;;;;8.02;84.46;99139.62;87181;1288;79040;-73
2022/01/03 03:37:59;;;;;;;6.30;3.00;;;;;;;7.96;84.54;99134.52;87193;1288;80278;-71
2022/01/03 03:40:07;;;;;;;3.90;2.70;;;;;;;7.92;84.67;99144.59;87251;1287;99788;-73
2022/01/03 03:42:15;;;;;;;4.10;2.40;;;;;;;7.88;84.58;99140.41;87227;1288;87819;-73
2022/01/03 03:44:20;;;;;;;5.00;2.30;;;;;;;7.85;84.63;99137.65;87271;1287;96002;-73
2022/01/03 03:46:26;;;;;;;4.00;2.20;;;;;;;7.85;84.74;99138.50;87248;1287;79997;-70
2022/01/03 03:48:34;;;;;;;5.20;2.20;;;;;;;7.88;84.75;99145.83;87254;1287;81222;-71
2022/01/03 03:50:40;;;;;;;5.70;2.40;;;;;;;7.91;84.83;99140.99;87290;1287;100290;-71
2022/01/03 03:52:47;;;;;;;7.30;2.60;;;;;;;7.93;84.73;99137.36;87291;1287;86523;-72
2022/01/03 03:54:52;;;;;;;4.00;2.30;;;;;;;7.96;84.76;99140.48;87205;1288;96853;-70
2022/01/03 03:57:03;;;;;;;5.60;2.20;;;;;;;7.94;84.64;99135.88;87201;1288;77752;-70
2022/01/03 03:59:08;;;;;;;5.40;2.80;;;;;;;7.93;84.50;99141.17;87264;1287;82737;-69
2022/01/03 04:01:17;;;;;;;4.80;2.60;;;;;;;7.89;84.40;99137.80;87202;1288;99709;-71
2022/01/03 04:03:23;;;;;;;5.70;3.10;;;;;;;7.82;84.49;99137.69;87051;1287;250041;-70
2022/01/03 04:05:28;;;;;;;6.70;2.60;;;;;;;7.75;84.42;99132.50;87270;1287;95360;-72
2022/01/03 04:07:34;;;;;;;6.10;3.10;;;;;;;7.65;84.50;99134.59;87173;1288;79978;-72
2022/01/03 04:09:42;;;;;;;5.50;3.10;;;;;;;7.60;84.79;99134.45;87240;1287;82336;-70
2022/01/03 04:11:48;;;;;;;4.40;2.60;;;;;;;7.58;84.87;99136.27;87163;1288;99984;-74
2022/01/03 04:13:54;;;;;;;6.00;2.80;;;;;;;7.59;84.93;99134.04;87266;1287;88776;-72
2022/01/03 04:16:03;;;;;;;6.90;2.90;;;;;;;7.57;84.73;99129.15;87181;1288;95989;-73
2022/01/03 04:18:08;;;;;;;5.10;3.00;;;;;;;7.55;84.84;99128.10;87193;1288;79009;-73
2022/01/03 04:20:16;;;;;;;5.50;2.70;;;;;;;7.50;84.81;99126.09;87304;1287;81239;-70
2022/01/03 04:22:21;;;;;;;4.60;2.90;;;;;;;7.45;84.74;99130.66;87181;1288;99173;-68
2022/01/03 04:24:29;;;;;;;5.00;2.80;;;;;;;7.39;84.90;99133.16;87268;1287;88681;-70
2022/01/03 04:26:35;;;;;;;5.70;3.00;;;;;;;7.33;84.85;99129.28;87171;1288;95099;-72
2022/01/03 04:28:44;;;;;;;4.10;2.40;;;;;;;7.28;84.89;99127.23;87150;1287;82435;-71
2022/01/03 04:30:51;;;;;;;5.40;3.10;;;;;;;7.23;85.08;99122.67;87263;1287;81930;-70
2022/01/03 04:32:56;;;;;;;5.10;2.70;;;;;;;7.19;84.98;99124.13;87248;1287;99545;-70
2022/01/03 04:35:07;;;;;;;4.50;3.10;;;;;;;7.16;85.08;99123.62;87264;1287;87595;-72
2022/01/03 04:37:14;;;;;;;5.70;3.10;;;;;;;7.16;85.50;99122.63;87264;1286;94242;-69
2022/01/03 04:39:20;;;;;;;5.60;3.10;;;;;;;7.20;85.38;99121.08;87156;1288;79694;-70
2022/01/03 04:41:26;;;;;;;4.80;3.00;;;;;;;7.21;85.47;99120.39;87277;1287;80718;-72
2022/01/03 04:43:33;;;;;;;5.70;3.20;;;;;;;7.22;85.42;99122.13;87258;1287;98807;-71
2022/01/03 04:45:39;;;;;;;6.30;3.50;;;;;;;7.21;85.50;99126.09;87266;1287;88399;-70
2022/01/03 04:47:45;;;;;;;6.20;3.90;;;;;;;7.22;85.52;99132.53;87166;1288;94397;-69
2022/01/03 04:49:50;;;;;;;7.50;4.20;;;;;;;7.22;85.69;99133.78;87076;1290;79184;-70
2022/01/03 04:51:55;;;;;;;6.40;4.20;;;;;;;7.22;85.81;99131.63;87247;1287;81290;-71
2022/01/03 04:54:01;;;;;;;5.80;4.10;;;;;;;7.18;85.64;99133.39;87233;1287;100345;-70
2022/01/03 04:56:08;;;;;;;6.20;4.10;;;;;;;7.12;85.74;99131.08;87194;1288;89263;-69
2022/01/03 04:58:14;;;;;;;6.70;3.70;;;;;;;7.09;85.82;99129.90;87321;1288;96209;-68
2022/01/03 05:00:21;;;;;;;6.90;3.60;;;;;;;7.06;85.92;99134.52;87376;1287;79460;-70
2022/01/03 05:02:27;;;;;;;6.70;3.70;;;;;;;7.07;85.94;99139.64;87379;1287;79991;-70
2022/01/03 05:04:33;;;;;;;4.60;2.90;;;;;;;7.06;85.86;99132.03;87386;1287;97672;-70
2022/01/03 05:06:38;;;;;;;6.10;3.20;;;;;;;7.06;85.90;99136.66;87354;1287;86813;-71
2022/01/03 05:08:44;;;;;;;7.00;3.70;;;;;;;7.06;86.01;99137.31;87369;1287;94211;-70
2022/01/03 05:10:52;;;;;;;7.40;3.30;;;;;;;7.06;86.12;99137.55;87342;1288;79958;-71
2022/01/03 05:12:58;;;;;;;6.50;3.00;;;;;;;7.06;86.18;99147.27;87371;1287;79460;-73
2022/01/03 05:15:05;;;;;;;5.90;4.10;;;;;;;7.07;86.12;99146.05;87371;1286;99554;-71
2022/01/03 05:17:11;;;;;;;6.90;3.40;;;;;;;7.07;86.15;99148.95;87372;1287;87719;-71
2022/01/03 05:19:16;;;;;;;4.80;3.20;;;;;;;7.09;86.16;99150.89;87349;1287;94560;-70
2022/01/03 05:21:24;;;;;;;5.30;3.30;;;;;;;7.07;86.20;99146.42;87357;1287;78639;-70
2022/01/03 05:23:33;;;;;;;6.60;3.40;;;;;;;7.08;86.19;99153.33;87386;1287;82705;-70
2022/01/03 05:25:42;;;;;;;6.10;3.30;;;;;;;7.04;86.19;99147.02;87387;1287;99397;-69
2022/01/03 05:27:48;;;;;;;6.50;3.40;;;;;;;7.02;86.19;99145.36;87354;1287;86718;-70
2022/01/03 05:29:54;;;;;;;7.10;3.50;;;;;;;7.00;86.08;99143.45;87376;1287;95568;-70
2022/01/03 05:32:03;;;;;;;7.20;3.40;;;;;;;6.98;86.23;99146.02;87365;1287;81475;-70
2022/01/03 05:34:09;;;;;;;4.70;3.10;;;;;;;6.97;86.37;99146.27;87360;1287;81245;-71
2022/01/03 05:36:18;;;;;;;7.30;3.50;;;;;;;6.97;86.33;99150.27;87344;1287;99726;-71
2022/01/03 05:38:23;;;;;;;6.20;3.30;;;;;;;6.97;86.39;99145.96;87383;1287;87220;-70
2022/01/03 05:40:29;;;;;;;7.00;3.40;;;;;;;6.99;86.44;99148.63;87270;1287;95315;-69
2022/01/03 05:42:35;;;;;;;7.40;3.70;;;;;;;6.99;86.36;99145.47;87175;1288;80229;-69
2022/01/03 05:44:41;;;;;;;5.50;3.00;;;;;;;6.99;86.42;99148.89;87273;1287;82952;-71
2022/01/03 05:46:47;;;;;;;7.10;3.80;;;;;;;6.99;86.51;99145.04;87176;1288;99508;-72
2022/01/03 05:48:52;;;;;;;6.90;3.50;;;;;;;7.02;86.39;99146.35;87278;1287;89292;-70
2022/01/03 05:51:02;;;;;;;10.00;4.00;;;;;;;7.02;86.35;99146.88;87226;1287;94196;-70
2022/01/03 05:53:08;;;;;;;6.70;3.80;;;;;;;7.01;86.42;99144.56;87188;1288;80315;-71
2022/01/03 05:55:19;;;;;;;7.40;4.40;;;;;;;6.97;86.39;99141.15;87187;1288;83208;-70
2022/01/03 05:57:25;;;;;;;6.90;3.90;;;;;;;6.95;86.38;99143.58;87175;1288;98085;-70
2022/01/03 05:59:33;;;;;;;6.40;3.60;;;;;;;6.93;86.42;99139.64;87279;1287;88656;-70
2022/01/03 06:01:40;;;;;;;7.10;3.70;;;;;;;6.94;86.39;99146.01;87260;1287;94216;-71
2022/01/03 06:03:46;;;;;;;6.10;3.60;;;;;;;6.93;86.62;99145.91;87186;1288;79682;-71
2022/01/03 06:06:16;;;;;;;6.40;4.40;;;;;;;6.93;86.45;99144.59;87165;1288;81489;-70
2022/01/03 06:08:22;;;;;;;5.60;3.60;;;;;;;6.91;86.55;99143.72;87239;1287;98802;-70
2022/01/03 06:10:29;;;;;;;6.90;3.60;;;;;;;6.92;86.48;99146.61;87261;1287;89025;-69
2022/01/03 06:12:35;;;;;;;6.60;3.50;;;;;;;6.93;86.66;99145.91;87162;1288;93431;-69
2022/01/03 06:14:44;;;;;;;6.60;3.80;;;;;;;6.92;86.48;99146.23;87211;1287;82017;-71
2022/01/03 06:16:50;;;;;;;6.10;3.30;;;;;;;6.95;86.63;99148.25;87262;1287;82326;-69
2022/01/03 06:18:56;;;;;;;7.90;4.30;;;;;;;6.92;86.57;99150.70;87185;1288;99147;-70
2022/01/03 06:21:02;;;;;;;5.30;3.70;;;;;;;6.94;86.58;99153.39;87150;1288;88792;-71
2022/01/03 06:23:08;;;;;;;6.70;3.70;;;;;;;6.94;86.58;99156.08;87260;1287;95289;-70
2022/01/03 06:25:14;;;;;;;8.20;3.80;;;;;;;6.91;86.69;99158.25;87181;1288;79686;-70
2022/01/03 06:27:20;;;;;;;7.70;3.60;;;;;;;6.87;86.55;99159.45;87274;1287;80085;-70
2022/01/03 06:29:27;;;;;;;7.00;3.90;;;;;;;6.85;86.57;99162.55;87156;1288;97685;-70
2022/01/03 06:31:33;;;;;;;5.50;3.10;;;;;;;6.86;86.52;99165.11;87248;1287;87998;-70
2022/01/03 06:33:40;;;;;;;7.00;3.20;;;;;;;6.88;86.62;99166.82;87232;1287;94990;-69
2022/01/03 06:35:46;;;;;;;5.60;3.30;;;;;;;6.91;86.68;99167.46;87272;1287;82220;-70
2022/01/03 06:37:55;;;;;;;6.10;3.40;;;;;;;6.96;86.74;99166.88;87238;1287;80271;-70
2022/01/03 06:40:00;;;;;;;5.10;3.60;;;;;;;7.02;86.76;99174.27;87248;1287;99180;-70
2022/01/03 06:42:07;;;;;;;7.30;3.80;;;;;;;7.06;86.61;99175.09;87237;1286;89302;-70
2022/01/03 06:44:13;;;;;;;6.70;3.90;;;;;;;7.08;86.68;99180.92;87221;1287;95601;-70
2022/01/03 06:46:22;;;;;;;7.00;4.50;;;;;;;7.09;86.63;99182.95;86963;1290;78150;-69
2022/01/03 06:48:27;;;;;;;8.90;6.10;;;;;;;7.09;86.58;99186.66;87267;1287;82873;-69
2022/01/03 06:50:36;;;;;;;8.90;4.60;;;;;;;7.08;86.68;99184.14;87234;1287;99132;-70
2022/01/03 06:52:42;;;;;;;6.50;3.90;;;;;;;7.07;86.44;99182.48;87266;1287;88756;-70
2022/01/03 06:54:49;;;;;;;5.90;3.80;;;;;;;7.06;86.50;99177.71;87234;1287;95833;-70
2022/01/03 06:56:55;;;;;;;7.40;3.90;;;;;;;7.04;86.48;99180.27;87237;1287;79871;-70
2022/01/03 06:59:01;;;;;;;8.80;4.20;;;;;;;7.06;86.54;99176.48;87237;1287;80343;-69
2022/01/03 07:01:08;;;;;;;6.90;4.10;;;;;;;7.06;86.43;99178.46;87267;1287;99869;-71
2022/01/03 07:03:14;;;;;;;7.20;4.10;;;;;;;7.08;86.42;99177.86;87197;1287;87592;-70
2022/01/03 07:05:19;;;;;;;7.80;3.70;;;;;;;7.08;86.58;99175.31;87281;1287;95808;-70
2022/01/03 07:07:25;;;;;;;7.90;4.30;;;;;;;7.11;86.64;99173.17;87179;1288;79655;-70
2022/01/03 07:09:31;;;;;;;7.80;4.10;;;;;;;7.13;86.47;99170.70;87268;1287;82694;-69
2022/01/03 07:11:40;;;;;;;10.40;4.70;;;;;;;7.14;86.45;99173.94;87243;1287;97554;-69
2022/01/03 07:13:48;;;;;;;8.00;4.50;;;;;;;7.15;86.55;99172.33;87256;1287;87531;-69
2022/01/03 07:20:48;;;;;;;7.60;4.00;;;;;;;7.10;86.57;99177.95;86765;1294;80936;-70
2022/01/03 07:22:56;;;;;;;8.00;5.20;;;;;;;7.17;86.68;99182.09;86689;1294;97670;-70
2022/01/03 07:25:01;;;;;;;6.80;4.30;;;;;;;7.26;86.70;99184.25;86768;1294;88984;-69
2022/01/03 07:27:10;;;;;;;6.60;4.00;;;;;;;7.33;86.64;99181.93;86629;1293;95424;-71
2022/01/03 07:29:16;;;;;;;8.30;4.30;;;;;;;7.41;86.68;99183.23;86766;1293;79493;-69
2022/01/03 07:31:24;;;;;;;6.90;4.30;;;;;;;7.48;86.62;99183.84;86784;1294;82860;-70
2022/01/03 07:33:33;;;;;;;9.30;4.50;;;;;;;7.58;86.77;99186.13;86677;1294;99445;-70
2022/01/03 07:35:39;;;;;;;8.70;4.50;;;;;;;7.68;86.58;99186.23;86808;1294;89009;-69
2022/01/03 07:37:48;;;;;;;6.60;4.40;;;;;;;7.74;86.57;99189.05;86648;1293;95559;-69
2022/01/03 07:39:57;;;;;;;11.60;4.90;;;;;;;7.79;86.59;99187.91;87258;1287;78526;-69
2022/01/03 07:42:05;;;;;;;7.10;4.90;;;;;;;7.84;86.55;99186.85;87268;1287;82376;-72
2022/01/03 07:44:13;;;;;;;11.40;5.10;;;;;;;7.90;86.43;99190.34;87226;1287;99610;-70
2022/01/03 07:46:19;;;;;;;7.10;4.70;;;;;;;8.02;86.23;99187.36;87069;1291;87529;-70
2022/01/03 07:48:28;;;;;;;7.30;5.10;;;;;;;8.08;86.33;99184.48;87214;1287;95747;-70
2022/01/03 07:50:37;;;;;;;9.40;4.70;;;;;;;8.14;86.21;99187.27;87258;1287;81199;-69
2022/01/03 07:52:43;;;;;;;7.20;4.90;;;;;;;8.18;86.10;99188.37;87138;1289;82466;-70
2022/01/03 07:54:52;;;;;;;8.00;5.10;;;;;;;8.24;86.17;99180.55;87256;1287;100042;-70
2022/01/03 07:57:04;;;;;;;8.10;5.00;;;;;;;8.26;86.13;99178.48;87245;1287;89478;-70
2022/01/03 07:59:09;;;;;;;7.30;4.50;;;;;;;8.32;85.90;99177.20;87238;1287;94525;-70
2022/01/03 08:01:18;;;;;;;7.80;4.90;;;;;;;8.30;85.75;99177.27;87239;1287;79275;-70
2022/01/03 08:03:27;;;;;;;7.90;4.60;;;;;;;8.27;85.63;99177.16;87217;1287;80107;-70
2022/01/03 08:05:32;;;;;;;7.40;4.70;;;;;;;8.26;85.63;99172.54;87215;1289;101485;-71
2022/01/03 08:07:39;;;;;;;7.40;4.90;;;;;;;8.25;85.58;99173.27;87254;1287;87535;-70
2022/01/03 08:09:44;;;;;;;9.40;4.40;;;;;;;8.23;85.40;99169.75;87169;1288;95535;-71
2022/01/03 08:11:53;;;;;;;8.60;4.30;;;;;;;8.22;85.55;99170.73;87208;1287;78703;-71
2022/01/03 08:14:00;;;;;;;7.90;4.40;;;;;;;8.25;85.47;99171.11;87252;1287;82150;-71
2022/01/03 08:16:11;;;;;;;5.20;4.20;;;;;;;8.27;85.33;99172.49;87241;1287;99934;-69
2022/01/03 08:18:20;;;;;;;8.20;4.30;;;;;;;8.31;85.33;99169.46;87151;1288;85913;-70
2022/01/03 08:20:26;;;;;;;6.90;4.70;;;;;;;8.34;85.37;99171.04;87225;1287;94605;-69
2022/01/03 08:22:34;;;;;;;8.80;4.90;;;;;;;8.36;85.32;99170.74;87245;1287;79814;-69
2022/01/03 08:24:40;;;;;;;8.20;5.40;;;;;;;8.41;85.31;99170.09;87142;1288;82686;-70
2022/01/03 08:26:49;;;;;;;8.40;4.90;;;;;;;8.39;85.38;99170.85;87215;1287;99762;-69
2022/01/03 08:28:58;;;;;;;9.30;5.20;;;;;;;8.38;85.36;99175.14;87156;1290;86712;-70
2022/01/03 08:31:04;;;;;;;9.90;5.40;;;;;;;8.39;85.43;99166.65;87169;1290;95601;-69
2022/01/03 08:33:10;;;;;;;9.50;5.30;;;;;;;8.40;85.30;99168.80;87243;1287;80030;-68
2022/01/03 08:35:19;;;;;;;8.00;5.40;;;;;;;8.41;85.32;99172.98;87212;1287;81597;-68
2022/01/03 08:37:28;;;;;;;10.60;6.00;;;;;;;8.44;85.33;99171.34;87240;1287;99695;-69
2022/01/03 08:39:35;;;;;;;8.60;6.00;;;;;;;8.47;85.47;99170.27;87148;1288;89024;-67
2022/01/03 08:41:41;;;;;;;9.40;6.00;;;;;;;8.48;85.41;99169.43;87132;1288;94176;-66
2022/01/03 08:43:46;;;;;;;11.40;6.20;;;;;;;8.50;85.29;99167.11;87212;1287;79330;-66
2022/01/03 08:45:52;;;;;;;9.30;6.30;;;;;;;8.55;85.41;99169.96;87218;1287;82693;-68
2022/01/03 08:47:59;;;;;;;11.40;6.50;;;;;;;8.56;85.27;99171.88;87234;1287;98627;-67
2022/01/03 08:50:10;;;;;;;10.30;6.10;;;;;;;8.54;85.35;99170.59;87222;1287;88877;-67
2022/01/03 08:52:17;;;;;;;10.10;5.90;;;;;;;8.53;85.24;99170.17;87237;1287;95384;-69
2022/01/03 08:54:25;;;;;;;10.70;5.80;;;;;;;8.55;85.16;99172.16;87229;1287;81256;-66
2022/01/03 08:56:34;;;;;;;9.40;6.00;;;;;;;8.57;85.25;99176.80;87241;1287;82561;-67
2022/01/03 08:58:43;;;;;;;9.60;5.80;;;;;;;8.56;85.39;99178.02;87237;1287;100117;-69
2022/01/03 09:00:53;;;;;;;9.30;6.30;;;;;;;8.60;85.22;99177.02;87205;1287;89102;-67
2022/01/03 09:03:02;;;;;;;9.80;5.60;;;;;;;8.60;85.32;99181.16;87236;1287;95867;-67
2022/01/03 09:05:09;;;;;;;8.60;5.60;;;;;;;8.58;85.36;99178.84;87238;1287;80343;-67
2022/01/03 09:07:16;;;;;;;8.80;6.20;;;;;;;8.59;85.29;99182.66;87221;1287;81013;-69
2022/01/03 09:09:27;;;;;;;10.20;6.60;;;;;;;8.57;85.31;99185.21;87236;1287;100063;-69
2022/01/03 09:11:37;;;;;;;9.50;5.90;;;;;;;8.58;85.29;99183.94;87168;1288;89085;-65
2022/01/03 09:13:44;;;;;;;10.70;6.40;;;;;;;8.55;85.33;99182.82;87238;1287;93515;-66
2022/01/03 09:15:55;;;;;;;7.10;5.90;;;;;;;8.54;85.25;99177.91;87214;1287;82541;-67
2022/01/03 09:18:05;;;;;;;9.60;7.00;;;;;;;8.55;85.21;99184.80;87141;1290;85098;-66
2022/01/03 09:20:15;;;;;;;8.50;6.10;;;;;;;8.58;85.46;99185.33;87221;1287;98349;-66
2022/01/03 09:22:29;;;;;;;7.90;5.40;;;;;;;8.60;85.55;99184.23;87232;1287;89057;-67
2022/01/03 09:24:46;;;;;;;11.40;5.80;;;;;;;8.64;85.45;99186.80;87092;1290;94617;-67
2022/01/03 09:29:20;;;;;;;8.50;5.40;;;;;;;8.72;85.38;99183.73;87247;1287;81492;-68
2022/01/03 09:31:31;;;;;;;10.10;6.70;;;;;;;8.72;85.43;99182.86;87297;1287;99587;-68
2022/01/03 09:33:37;;;;;;;7.60;5.10;;;;;;;8.69;85.59;99181.04;87260;1287;87611;-69
2022/01/03 09:35:46;;;;;;;8.40;5.50;;;;;;;8.73;85.45;99178.40;87241;1287;94919;-67
2022/01/03 09:37:52;;;;;;;7.60;5.10;;;;;;;8.72;85.45;99173.66;87144;1288;80071;-67
2022/01/03 09:40:03;;;;;;;7.40;4.90;;;;;;;8.73;85.44;99173.34;87224;1287;80616;-68
2022/01/03 09:42:14;;;;;;;6.70;4.70;;;;;;;8.73;85.57;99171.42;87180;1288;97911;-67
2022/01/03 09:44:30;;;;;;;6.20;4.60;;;;;;;8.75;85.56;99167.74;87148;1290;86853;-67
2022/01/03 09:46:39;;;;;;;6.60;4.50;;;;;;;8.77;85.67;99164.93;87171;1288;94016;-67
2022/01/03 09:48:52;;;;;;;5.60;4.30;;;;;;;8.79;85.65;99166.95;87152;1290;79498;-68
2022/01/03 09:51:01;;;;;;;6.50;4.40;;;;;;;8.81;85.49;99165.62;87245;1287;79622;-66
2022/01/03 09:53:08;;;;;;;8.00;4.20;;;;;;;8.80;85.60;99163.30;87247;1287;96608;-66
2022/01/03 09:55:16;;;;;;;8.10;5.10;;;;;;;8.76;85.79;99166.61;87176;1290;87726;-64
2022/01/03 09:57:30;;;;;;;8.00;4.90;;;;;;;8.73;85.64;99166.00;87245;1287;93488;-66
2022/01/03 09:59:39;;;;;;;6.30;4.60;;;;;;;8.70;85.77;99157.39;87082;1290;82274;-68
2022/01/03 10:01:46;;;;;;;6.70;4.40;;;;;;;8.68;85.72;99157.61;87239;1287;83385;-69
2022/01/03 10:03:52;;;;;;;7.00;4.40;;;;;;;8.66;85.74;99158.55;87231;1287;100366;-68
2022/01/03 10:06:03;;;;;;;7.30;4.40;;;;;;;8.65;85.88;99157.64;87274;1287;87481;-67
2022/01/03 10:08:14;;;;;;;6.20;3.90;;;;;;;8.62;85.93;99161.08;87249;1287;95004;-69
2022/01/03 10:10:24;;;;;;;6.60;4.80;;;;;;;8.62;86.15;99159.29;87055;1288;80411;-68
2022/01/03 10:12:31;;;;;;;6.40;3.90;;;;;;;8.68;86.27;99159.91;87193;1287;83488;-67
2022/01/03 10:14:42;;;;;;;7.20;4.40;;;;;;;8.71;86.31;99158.26;87242;1287;100081;-66
2022/01/03 10:16:51;;;;;;;5.80;3.60;;;;;;;8.75;86.26;99155.94;87222;1287;87456;-67
2022/01/03 10:18:58;;;;;;;7.30;3.80;;;;;;;8.75;86.22;99153.41;87245;1287;95394;-67
2022/01/03 10:21:07;;;;;;;5.90;4.20;;;;;;;8.72;86.44;99157.89;87184;1287;80017;-68